Rio Branco の空港の天気 - METARとTAF

リオブランコ国際空港 ( SBRB / RBR ) - ブラジル アクレ州、Rio Branco
飛行場実況気象(Metar)
観測時間10/28 12:00 ACT (10/28 17:00 UTC)
風向・風速北 6m/s 瞬間風速11m/s
視程10km以上
天気現象
全天の4割程度の雲 雲底高度 760m
全天の8割程度の雲 雲底高度 1520m
気温30℃
湿度62%
気圧1008hPa
METARSBRB 281700Z 35012G22KT 9999 SCT025 BKN050 30/22 Q1008
過去の天気等 Google飛行場航空写真 Wunderground天気予報

過去48時間のMETAR

飛行場予報(TAF)
発表時間: 10/28 04:00 ACT (10/28 09:00 UTC)
予報対象時間: 28日7時 ACT ~ 28日19時 ACT
風向・風速北 5m/s
視程8000m
全天の4割程度の雲 雲底高度 370m
28日8時 ACT ~ 28日10時 ACT に徐々に
風向・風速北 8m/s
視程10km以上
全天の4割程度の雲 雲底高度 520m
少しの塔状積雲 雲底高度 910m
28日11時 ACT ~ 28日13時 ACT に徐々に
視程8000m
天気現象
全天の8割程度の雲 雲底高度 520m
少しの積乱雲 雲底高度 910m
28日17時 ACT ~ 28日19時 ACT に徐々に
風向・風速北 5m/s
天気現象運行に影響にある天気現象が終了
全天の4割程度の雲 雲底高度 520m
TAF SBRB 280900Z 2812/2824 35010KT 8000 SCT012 TN26/2812Z TX33/2817Z
BECMG 2813/2815 35015KT 9999 SCT017 FEW030TCU
BECMG 2816/2818 8000 TS BKN017 FEW030CB
BECMG 2822/2824 35010KT NSW SCT017 RMK PGS